createdAt,value
2018-11-10T00:07:13.453Z,86.12
2018-11-10T00:17:34.901Z,87.29
2018-11-10T00:27:57.064Z,85.72
2018-11-10T00:38:19.392Z,85.79
2018-11-10T00:48:40.879Z,86.75
2018-11-10T00:59:01.690Z,86.14
2018-11-10T01:09:24.092Z,85.11
2018-11-10T01:19:45.199Z,86.48
2018-11-10T01:30:07.654Z,85.87
2018-11-10T01:40:29.055Z,85.92
2018-11-10T01:50:50.060Z,85.82
2018-11-10T02:01:11.872Z,85.99
2018-11-10T02:11:32.947Z,84.86
2018-11-10T02:21:54.043Z,84.45
2018-11-10T02:32:17.773Z,85.40
2018-11-10T02:42:39.318Z,86.35
2018-11-10T02:53:00.929Z,86.07
2018-11-10T03:03:22.272Z,85.47
2018-11-10T03:13:43.258Z,86.60
2018-11-10T03:24:04.129Z,86.02
2018-11-10T03:34:25.266Z,86.01
2018-11-10T03:44:46.519Z,85.38
2018-11-10T03:55:08.354Z,85.20
2018-11-10T04:05:29.321Z,85.06
2018-11-10T04:15:50.465Z,86.65
2018-11-10T04:26:11.716Z,86.04
2018-11-10T04:36:32.563Z,86.58
2018-11-10T04:46:54.220Z,86.15
2018-11-10T04:57:16.199Z,85.07
2018-11-10T05:07:38.650Z,84.62
2018-11-10T05:18:01.315Z,84.39
2018-11-10T05:28:22.656Z,86.35
2018-11-10T05:38:44.429Z,84.95
2018-11-10T05:49:06.284Z,85.28
2018-11-10T05:59:28.644Z,85.56
2018-11-10T06:09:53.602Z,85.22
2018-11-10T06:20:16.846Z,83.22
2018-11-10T06:30:39.400Z,82.75
2018-11-10T06:41:05.345Z,83.09
2018-11-10T06:51:26.881Z,82.54
2018-11-10T07:01:52.105Z,82.13
2018-11-10T07:12:16.579Z,81.62
2018-11-10T07:22:38.266Z,81.45
2018-11-10T07:33:02.175Z,81.75
2018-11-10T07:43:24.146Z,80.89
2018-11-10T07:53:46.604Z,80.69
2018-11-10T08:04:08.250Z,79.71
2018-11-10T08:14:29.603Z,79.56
2018-11-10T08:24:51.121Z,78.64
2018-11-10T08:35:13.011Z,78.96
2018-11-10T08:45:16.344Z,77.54
2018-11-10T08:55:19.233Z,76.70
2018-11-10T09:05:22.476Z,76.70
2018-11-10T09:15:25.458Z,76.31
2018-11-10T09:25:28.389Z,76.02
2018-11-10T09:35:31.320Z,74.34
2018-11-10T09:45:34.218Z,74.87
2018-11-10T09:55:37.543Z,74.64
2018-11-10T10:05:40.442Z,73.56
2018-11-10T10:15:43.349Z,71.81
2018-11-10T10:25:46.429Z,73.45
2018-11-10T10:35:49.305Z,73.13
2018-11-10T10:45:52.145Z,73.12
2018-11-10T10:55:55.052Z,72.87
2018-11-10T11:06:02.248Z,73.26
2018-11-10T11:16:05.915Z,74.23
2018-11-10T11:26:08.793Z,73.91
2018-11-10T11:36:11.802Z,74.19
2018-11-10T11:46:14.801Z,73.54
2018-11-10T11:56:17.662Z,72.72
2018-11-10T12:06:20.577Z,73.53
2018-11-10T12:16:27.196Z,73.72
2018-11-10T12:26:26.384Z,74.19
2018-11-10T12:37:57.523Z,74.16
2018-11-10T12:48:00.411Z,74.72
2018-11-10T12:58:03.378Z,75.41
2018-11-10T13:08:06.373Z,74.56
2018-11-10T13:18:09.182Z,74.91
2018-11-10T13:28:12.089Z,74.79
2018-11-10T13:38:15.120Z,75.04
2018-11-10T13:48:17.923Z,74.51
2018-11-10T13:58:20.836Z,75.21
2018-11-10T14:08:24.227Z,75.57
2018-11-10T14:18:27.348Z,75.94
2018-11-10T14:28:30.703Z,75.75
2018-11-10T14:38:33.630Z,76.97
2018-11-10T14:48:36.480Z,76.67
2018-11-10T14:58:39.488Z,77.99
2018-11-10T15:08:42.252Z,80.13
2018-11-10T15:19:20.830Z,81.02
2018-11-10T15:29:20.694Z,83.41
2018-11-10T15:39:20.667Z,83.70
2018-11-10T15:49:20.538Z,84.59
2018-11-10T15:59:23.075Z,84.66
2018-11-10T16:09:24.235Z,86.02
2018-11-10T16:19:24.522Z,86.36
2018-11-10T16:29:24.398Z,85.96
2018-11-10T16:39:24.288Z,87.98
2018-11-10T16:49:24.139Z,87.78
2018-11-10T16:59:24.016Z,88.94
2018-11-10T17:09:23.883Z,88.70
2018-11-10T17:19:23.815Z,88.25
2018-11-10T17:29:23.703Z,89.68
2018-11-10T17:39:23.738Z,89.27
2018-11-10T17:49:23.475Z,88.40
2018-11-10T17:59:23.352Z,89.23
2018-11-10T18:09:23.222Z,89.58
2018-11-10T18:19:23.103Z,88.79
2018-11-10T18:29:23.003Z,89.50
2018-11-10T18:39:23.009Z,88.60
2018-11-10T18:49:22.882Z,88.43
2018-11-10T18:59:22.751Z,88.12
2018-11-10T19:09:23.044Z,86.68
2018-11-10T19:19:22.902Z,86.96
2018-11-10T19:29:22.795Z,87.60
2018-11-10T19:39:22.657Z,87.46
2018-11-10T19:49:22.513Z,88.21
2018-11-10T19:59:22.372Z,87.67
2018-11-10T20:09:22.279Z,88.48
2018-11-10T20:19:22.550Z,88.07
2018-11-10T20:29:22.361Z,87.87
2018-11-10T20:39:22.278Z,88.04
2018-11-10T20:49:22.221Z,87.59
2018-11-10T20:59:22.108Z,88.17
2018-11-10T21:09:23.311Z,86.87
2018-11-10T21:19:24.508Z,86.00
2018-11-10T21:29:25.551Z,86.27
2018-11-10T21:39:44.554Z,86.93
2018-11-10T21:50:04.849Z,87.24
2018-11-10T22:00:24.049Z,86.17
2018-11-10T22:10:44.075Z,86.18
2018-11-10T22:21:01.891Z,86.79
2018-11-10T22:31:20.023Z,85.65
2018-11-10T22:41:38.090Z,86.61
2018-11-10T22:51:56.205Z,86.36
2018-11-10T23:02:14.757Z,86.33
2018-11-10T23:12:33.240Z,84.76
2018-11-10T23:22:51.317Z,84.26
2018-11-10T23:33:09.325Z,83.34
2018-11-10T23:43:27.375Z,82.41
2018-11-10T23:53:45.633Z,82.87
